Flight Track Log - Related Links

Times and Time Zones

All times are in EDT time to prevent confusion due to time zone crossing. See the UAL4407 flight status page for this flight to view local times or setup timezone preferences in your user account.

Time Position Orientation Groundspeed Altitude Reporting Facility
EDT Latitude Longitude Course Direction KTS MPH feet Rate Location/Type
Thu 06:20:23 AM 42.9500 -71.4500 295° West 162 186 1,000  Level KA90
Thu 06:20:40 AM 42.9608 -71.4500 360° North 181 208 1,900 2,727 Climbing Boston Center
Thu 06:21:40 AM 43.0069 -71.4747 339° North 207 238 4,500 2,500 Climbing Boston Center
Thu 06:22:00 AM 42.9573 -71.7081 280° West  Level FlightAware Approximate
Thu 06:22:40 AM 43.0636 -71.5278 326° Northwest 218 251 6,900  Level Boston Center
Thu 06:23:00 AM 42.9668 -71.8013 280° West  Level FlightAware Approximate
Thu 06:23:40 AM 43.0831 -71.6044 289° West 228 262 9,600  Level Boston Center
Thu 06:24:00 AM 42.9785 -71.8943 280° West  Level FlightAware Approximate
Thu 06:24:40 AM 43.0900 -71.7008 276° West 233 268 12,900  Level Boston Center
Thu 06:25:00 AM 42.9999 -71.9831 295° West  Level FlightAware Approximate
Thu 06:25:40 AM 43.0967 -71.7889 276° West 250 288 14,200  Level Boston Center
Thu 06:26:40 AM 43.1036 -71.9111 274° West 287 330 16,000 1,800 Climbing Boston Center
Thu 06:27:40 AM 43.1103 -72.0164 275° West 306 352 17,800 1,750 Climbing Boston Center
Thu 06:28:40 AM 43.1169 -72.1331 275° West 313 360 19,500 1,100 Climbing Boston Center
Thu 06:29:40 AM 43.1256 -72.2581 275° West 319 367 20,000 250 Climbing Boston Center
Thu 06:30:40 AM 43.1381 -72.3861 278° West 333 383 20,000  Level Boston Center
Thu 06:31:40 AM 43.1403 -72.5197 271° West 345 397 20,000  Level Boston Center
Thu 06:32:40 AM 43.1506 -72.6650 276° West 350 403 20,000  Level Boston Center
Thu 06:33:40 AM 43.1583 -72.7958 275° West 350 403 20,000  Level Boston Center
Thu 06:34:40 AM 43.1642 -72.9269 274° West 350 403 20,000  Level Boston Center
Thu 06:35:40 AM 43.1697 -73.0578 273° West 350 403 20,000  Level Boston Center
Thu 06:36:40 AM 43.1442 -73.1714 253° West 336 387 20,000  Level Boston Center
Thu 06:37:40 AM 43.0872 -73.2617 229° Southwest 312 359 20,000  Level Boston Center
Thu 06:38:40 AM 43.0325 -73.3519 230° Southwest 306 352 20,000 -100 Level Boston Center
Thu 06:39:40 AM 42.9711 -73.4389 226° Southwest 312 359 19,800 -500 Descending Boston Center
Thu 06:40:40 AM 42.9247 -73.5203 232° Southwest 317 365 19,000 -700 Descending Boston Center
Thu 06:41:40 AM 42.8803 -73.5933 230° Southwest 309 356 18,400 -850 Descending Boston Center
Thu 06:42:40 AM 42.8144 -73.6967 229° Southwest 304 350 17,300 -1,100 Descending Boston Center
Thu 06:43:40 AM 42.7572 -73.7917 231° Southwest 309 356 16,200 -700 Descending Boston Center
Thu 06:44:40 AM 42.6794 -73.8408 205° Southwest 297 342 15,900 -100 Descending Boston Center
Thu 06:45:40 AM 42.5956 -73.8756 197° South 302 348 16,000 50 Climbing Boston Center
Thu 06:46:40 AM 42.5286 -73.9022 196° South 315 362 16,000  Level Boston Center
Thu 06:47:40 AM 42.4300 -73.9450 198° South 315 362 16,000  Level Boston Center
Thu 06:48:40 AM 42.3483 -73.9822 199° South 315 362 16,000  Level Boston Center
Thu 06:49:40 AM 42.2664 -74.0194 199° South 315 362 16,000  Level Boston Center
Thu 06:50:40 AM 42.1847 -74.0539 197° South 310 357 16,000 50 Level Boston Center
Thu 06:51:40 AM 42.1008 -74.0939 199° South 310 357 16,100 50 Climbing Boston Center
Thu 06:52:40 AM 42.0189 -74.1281 197° South 310 357 16,100 -350 Level Boston Center
Thu 06:53:40 AM 41.9433 -74.1622 199° South 310 357 15,400 -1,350 Descending Boston Center
Thu 06:54:40 AM 41.8553 -74.2017 198° South 310 357 13,400 -1,850 Descending Boston Center
Thu 06:55:40 AM 41.7775 -74.2328 197° South 310 357 11,700 -1,600 Descending Boston Center
Thu 06:56:40 AM 41.6978 -74.2694 199° South 294 338 10,200 -1,364 Descending Boston Center
Thu 06:57:52 AM 41.6139 -74.3033 197° South 267 307 8,700 -1,182 Descending Boston Center
Thu 06:58:52 AM 41.5467 -74.3347 199° South 262 302 7,600 -611 Descending Boston Center
Thu 07:00:39 AM 41.4167 -74.3833 196° South 265 305 7,000 -216 Descending New York TRACON
Thu 07:01:39 AM 41.3500 -74.4167 201° Southwest 267 307 7,000  Level New York TRACON
Thu 07:02:39 AM 41.2833 -74.4500 201° Southwest 263 303 7,000  Level New York TRACON
Thu 07:03:40 AM 41.2167 -74.4833 201° Southwest 262 302 7,000  Level New York TRACON
Thu 07:04:40 AM 41.1333 -74.5167 197° South 271 312 7,000  Level New York TRACON
Thu 07:05:40 AM 41.0667 -74.5333 191° South 256 295 7,000  Level New York TRACON
Thu 07:06:34 AM 41.0000 -74.5500 191° South 260 299 7,000 -500 Level New York TRACON
Thu 07:07:40 AM 40.9167 -74.5500 180° South 269 310 6,000 -500 Descending New York TRACON
Thu 07:08:34 AM 40.8667 -74.5833 207° Southwest 258 297 6,000  Level New York TRACON
Thu 07:09:34 AM 40.8167 -74.6500 225° Southwest 246 283 6,000  Level New York TRACON
Thu 07:10:28 AM 40.7667 -74.6833 207° Southwest 264 304 6,000  Level New York TRACON
Thu 07:11:28 AM 40.7000 -74.6333 150° Southeast 275 316 6,000  Level New York TRACON
Thu 07:12:23 AM 40.6500 -74.5833 143° Southeast 267 307 6,000 -470 Level New York TRACON
Thu 07:13:23 AM 40.5833 -74.5500 159° South 263 303 5,100 -950 Descending New York TRACON
Thu 07:14:23 AM 40.5167 -74.5000 150° Southeast 278 320 4,100 -1,000 Descending New York TRACON
Thu 07:15:23 AM 40.4833 -74.4333 123° Southeast 249 287 3,100 -579 Descending New York TRACON
Thu 07:16:17 AM 40.4833 -74.3500 90° East 197 227 3,000 -53 Descending New York TRACON
Thu 07:17:17 AM 40.5000 -74.2833 72° East 196 226 3,000  Level New York TRACON
Thu 07:18:11 AM 40.5333 -74.2667 21° North 166 191 3,000 -316 Level New York TRACON
Thu 07:19:11 AM 40.5667 -74.2333 37° Northeast 157 181 2,400 -600 Descending New York TRACON

Login

Don't have an account? Register now (free) for customized features, flight alerts, and more!